createdAt,value
2018-05-21T00:00:11.660Z,17.57
2018-05-21T00:01:11.947Z,17.71
2018-05-21T00:02:11.707Z,17.56
2018-05-21T00:03:11.729Z,17.57
2018-05-21T00:04:12.007Z,17.54
2018-05-21T00:05:12.024Z,17.65
2018-05-21T00:06:12.050Z,17.67
2018-05-21T00:07:11.567Z,17.56
2018-05-21T00:08:11.906Z,17.56
2018-05-21T00:09:11.872Z,17.48
2018-05-21T00:10:12.141Z,17.52
2018-05-21T00:11:12.164Z,17.57
2018-05-21T00:12:12.202Z,17.49
2018-05-21T00:13:12.273Z,17.48
2018-05-21T00:14:12.312Z,17.45
2018-05-21T00:15:12.002Z,17.42
2018-05-21T00:16:11.768Z,17.38
2018-05-21T00:17:12.047Z,17.38
2018-05-21T00:18:12.351Z,17.33
2018-05-21T00:19:12.346Z,17.39
2018-05-21T00:20:12.368Z,17.27
2018-05-21T00:21:12.132Z,17.31
2018-05-21T00:22:12.167Z,17.23
2018-05-21T00:23:12.439Z,17.31
2018-05-21T00:24:12.205Z,17.29
2018-05-21T00:25:12.485Z,17.33
2018-05-21T00:26:12.255Z,17.34
2018-05-21T00:27:12.521Z,17.23
2018-05-21T00:28:12.599Z,17.15
2018-05-21T00:29:12.565Z,17.16
2018-05-21T00:30:12.593Z,17.16
2018-05-21T00:31:12.622Z,17.16
2018-05-21T00:32:12.633Z,16.94
2018-05-21T00:33:12.652Z,16.99
2018-05-21T00:34:12.687Z,17.05
2018-05-21T00:35:12.710Z,17.11
2018-05-21T00:36:12.526Z,17.12
2018-05-21T00:37:12.745Z,17.06
2018-05-21T00:38:12.788Z,17.06
2018-05-21T00:39:12.789Z,16.99
2018-05-21T00:40:12.816Z,16.97
2018-05-21T00:41:12.589Z,16.97
2018-05-21T00:42:12.605Z,16.91
2018-05-21T00:43:12.927Z,16.91
2018-05-21T00:44:12.909Z,16.91
2018-05-21T00:45:12.928Z,16.91
2018-05-21T00:46:12.945Z,16.87
2018-05-21T00:47:12.969Z,16.74
2018-05-21T00:48:12.989Z,16.78
2018-05-21T00:49:13.007Z,16.74
2018-05-21T00:50:13.045Z,16.78
2018-05-21T00:51:13.071Z,16.9
2018-05-21T00:52:13.073Z,16.76
2018-05-21T00:53:13.100Z,16.79
2018-05-21T00:54:13.126Z,16.74
2018-05-21T00:55:13.145Z,16.71
2018-05-21T00:56:13.163Z,16.69
2018-05-21T00:57:13.195Z,16.71
2018-05-21T00:58:13.266Z,16.58
2018-05-21T00:59:12.980Z,16.6
2018-05-21T01:00:13.246Z,16.66
2018-05-21T01:01:13.282Z,16.61
2018-05-21T01:02:13.042Z,16.64
2018-05-21T01:03:13.316Z,16.78
2018-05-21T01:04:13.349Z,16.69
2018-05-21T01:05:13.365Z,16.71
2018-05-21T01:06:13.376Z,16.69
2018-05-21T01:07:13.140Z,16.74
2018-05-21T01:08:13.165Z,16.68
2018-05-21T01:09:13.439Z,16.72
2018-05-21T01:10:13.459Z,16.81
2018-05-21T01:11:13.491Z,16.71
2018-05-21T01:12:13.522Z,16.68
2018-05-21T01:13:13.587Z,16.69
2018-05-21T01:14:13.317Z,16.69
2018-05-21T01:15:13.074Z,16.72
2018-05-21T01:16:13.603Z,16.72
2018-05-21T01:17:13.625Z,16.72
2018-05-21T01:18:13.393Z,16.69
2018-05-21T01:19:13.416Z,16.74
2018-05-21T01:20:13.689Z,16.72
2018-05-21T01:21:13.716Z,16.69
2018-05-21T01:22:13.744Z,16.66
2018-05-21T01:23:13.757Z,16.75
2018-05-21T01:24:13.789Z,16.69
2018-05-21T01:25:13.293Z,16.61
2018-05-21T01:26:13.909Z,16.68
2018-05-21T01:27:13.849Z,16.66
2018-05-21T01:28:13.661Z,16.65
2018-05-21T01:29:13.887Z,16.75
2018-05-21T01:30:13.658Z,16.76
2018-05-21T01:31:13.686Z,16.61
2018-05-21T01:32:13.954Z,16.69
2018-05-21T01:33:14.077Z,16.75
2018-05-21T01:34:13.997Z,16.61
2018-05-21T01:35:13.770Z,16.6
2018-05-21T01:36:13.789Z,16.56
2018-05-21T01:37:13.809Z,16.49
2018-05-21T01:38:14.092Z,16.56
2018-05-21T01:39:14.107Z,16.39
2018-05-21T01:40:14.139Z,16.47
2018-05-21T01:41:14.158Z,16.54
2018-05-21T01:42:14.177Z,16.41
2018-05-21T01:43:14.244Z,16.53
2018-05-21T01:44:14.216Z,16.46
2018-05-21T01:45:13.985Z,16.42
2018-05-21T01:46:14.263Z,16.36
2018-05-21T01:47:14.031Z,16.46
2018-05-21T01:48:14.300Z,16.43
2018-05-21T01:49:14.070Z,16.33
2018-05-21T01:50:14.100Z,16.35
2018-05-21T01:51:14.117Z,16.39
2018-05-21T01:52:14.395Z,16.43
2018-05-21T01:53:14.415Z,16.39
2018-05-21T01:54:14.183Z,16.38
2018-05-21T01:55:14.205Z,16.43
2018-05-21T01:56:14.483Z,16.42
2018-05-21T01:57:14.499Z,16.41
2018-05-21T01:58:14.629Z,16.36
2018-05-21T01:59:14.288Z,16.41
2018-05-21T02:00:14.310Z,16.42
2018-05-21T02:01:14.576Z,16.47
2018-05-21T02:02:14.346Z,16.51
2018-05-21T02:03:14.625Z,16.43
2018-05-21T02:04:14.133Z,16.42
2018-05-21T02:05:14.413Z,16.42
2018-05-21T02:06:14.695Z,16.39
2018-05-21T02:07:14.453Z,16.42
2018-05-21T02:08:14.567Z,16.41
2018-05-21T02:09:14.744Z,16.41
2018-05-21T02:10:14.781Z,16.46
2018-05-21T02:11:14.538Z,16.54
2018-05-21T02:12:14.559Z,16.41
2018-05-21T02:13:14.650Z,16.36
2018-05-21T02:14:14.869Z,16.31
2018-05-21T02:15:14.893Z,16.36
2018-05-21T02:16:14.400Z,16.38
2018-05-21T02:17:14.676Z,16.39
2018-05-21T02:18:14.954Z,16.36
2018-05-21T02:19:14.979Z,16.33
2018-05-21T02:20:14.748Z,16.38
2018-05-21T02:21:15.028Z,16.36
2018-05-21T02:22:15.043Z,16.43
2018-05-21T02:23:15.063Z,16.41
2018-05-21T02:24:14.832Z,16.32
2018-05-21T02:25:15.107Z,16.28
2018-05-21T02:26:15.129Z,16.39
2018-05-21T02:27:15.148Z,16.35
2018-05-21T02:28:14.915Z,16.39
2018-05-21T02:29:15.188Z,16.39
2018-05-21T02:30:14.723Z,16.33
2018-05-21T02:31:15.328Z,16.24
2018-05-21T02:32:15.258Z,16.31
2018-05-21T02:33:15.278Z,16.23
2018-05-21T02:34:15.048Z,16.26
2018-05-21T02:35:15.333Z,16.29
2018-05-21T02:36:15.100Z,16.24
2018-05-21T02:37:14.856Z,16.33
2018-05-21T02:38:15.137Z,16.28
2018-05-21T02:39:15.410Z,16.31
2018-05-21T02:40:15.428Z,16.24
2018-05-21T02:41:15.196Z,16.21
2018-05-21T02:42:15.483Z,16.23
2018-05-21T02:43:15.513Z,16.21
2018-05-21T02:44:15.515Z,16.24
2018-05-21T02:45:15.528Z,16.04
2018-05-21T02:46:15.545Z,16.08
2018-05-21T02:47:15.321Z,16.1
2018-05-21T02:48:15.598Z,16
2018-05-21T02:49:15.620Z,16.05
2018-05-21T02:50:15.687Z,16.05
2018-05-21T02:51:15.664Z,15.98
2018-05-21T02:52:15.681Z,15.97
2018-05-21T02:53:15.706Z,15.97
2018-05-21T02:54:15.732Z,15.84
2018-05-21T02:55:15.498Z,15.91
2018-05-21T02:56:15.516Z,15.94
2018-05-21T02:57:15.539Z,15.92
2018-05-21T02:58:15.808Z,15.84
2018-05-21T02:59:15.846Z,15.82
2018-05-21T03:00:15.603Z,15.7
2018-05-21T03:01:15.953Z,15.76
2018-05-21T03:02:15.908Z,15.77
2018-05-21T03:03:15.933Z,15.75
2018-05-21T03:04:15.948Z,15.75
2018-05-21T03:05:15.713Z,15.73
2018-05-21T03:06:15.732Z,15.76
2018-05-21T03:07:16.005Z,15.76
2018-05-21T03:08:16.030Z,15.72
2018-05-21T03:09:16.063Z,15.75
2018-05-21T03:10:15.826Z,15.82
2018-05-21T03:11:15.839Z,15.82
2018-05-21T03:12:16.118Z,15.82
2018-05-21T03:13:15.883Z,15.84
2018-05-21T03:14:16.154Z,15.86
2018-05-21T03:15:16.179Z,15.79
2018-05-21T03:16:15.952Z,15.82
2018-05-21T03:17:15.698Z,15.82
2018-05-21T03:18:16.216Z,15.79
2018-05-21T03:19:16.242Z,15.83
2018-05-21T03:20:16.013Z,15.76
2018-05-21T03:21:16.032Z,15.77
2018-05-21T03:22:16.302Z,15.75
2018-05-21T03:23:16.403Z,15.7
2018-05-21T03:24:16.350Z,15.7
2018-05-21T03:25:16.139Z,15.72
2018-05-21T03:26:16.409Z,15.86
2018-05-21T03:27:16.434Z,15.86
2018-05-21T03:28:16.206Z,15.82
2018-05-21T03:29:16.460Z,15.77
2018-05-21T03:30:16.488Z,15.84
2018-05-21T03:31:16.522Z,15.79
2018-05-21T03:32:16.528Z,15.84
2018-05-21T03:33:16.550Z,15.8
2018-05-21T03:34:16.576Z,15.76
2018-05-21T03:35:16.620Z,15.77
2018-05-21T03:36:16.625Z,15.86
2018-05-21T03:37:16.641Z,15.86
2018-05-21T03:38:16.667Z,15.88
2018-05-21T03:39:16.429Z,15.92
2018-05-21T03:40:16.454Z,15.76
2018-05-21T03:41:16.796Z,15.8
2018-05-21T03:42:16.757Z,15.84
2018-05-21T03:43:16.780Z,15.88
2018-05-21T03:44:16.543Z,15.9
2018-05-21T03:45:16.816Z,15.82
2018-05-21T03:46:16.582Z,15.86
2018-05-21T03:47:16.857Z,15.84
2018-05-21T03:48:16.880Z,15.79
2018-05-21T03:49:16.897Z,15.76
2018-05-21T03:50:16.667Z,15.77
2018-05-21T03:51:16.936Z,15.72
2018-05-21T03:52:16.957Z,15.82
2018-05-21T03:53:16.979Z,15.76
2018-05-21T03:54:16.745Z,15.75
2018-05-21T03:55:16.773Z,15.62
2018-05-21T03:56:17.041Z,15.47
2018-05-21T03:57:17.082Z,15.55
2018-05-21T03:58:16.832Z,15.55
2018-05-21T03:59:16.854Z,15.42
2018-05-21T04:00:17.177Z,15.57
2018-05-21T04:01:17.151Z,15.52
2018-05-21T04:02:17.171Z,15.52
2018-05-21T04:03:16.942Z,15.44
2018-05-21T04:04:17.209Z,15.35
2018-05-21T04:05:16.978Z,15.36
2018-05-21T04:06:17.257Z,15.37
2018-05-21T04:07:17.275Z,15.35
2018-05-21T04:08:17.302Z,15.39
2018-05-21T04:09:17.320Z,15.37
2018-05-21T04:10:17.336Z,15.29
2018-05-21T04:11:17.366Z,15.35
2018-05-21T04:12:17.384Z,15.39
2018-05-21T04:13:17.410Z,15.33
2018-05-21T04:14:17.182Z,15.4
2018-05-21T04:15:17.449Z,15.43
2018-05-21T04:16:17.215Z,15.55
2018-05-21T04:17:17.496Z,15.58
2018-05-21T04:18:17.528Z,15.55
2018-05-21T04:19:17.532Z,15.64
2018-05-21T04:20:17.617Z,15.61
2018-05-21T04:21:17.572Z,15.64
2018-05-21T04:22:17.340Z,15.68
2018-05-21T04:23:17.366Z,15.64
2018-05-21T04:24:17.389Z,15.76
2018-05-21T04:25:17.652Z,15.8
2018-05-21T04:26:17.422Z,15.76
2018-05-21T04:27:17.691Z,15.88
2018-05-21T04:28:17.715Z,15.88
2018-05-21T04:29:17.489Z,15.88
2018-05-21T04:30:17.507Z,15.97
2018-05-21T04:31:17.524Z,15.92
2018-05-21T04:32:17.821Z,15.88
2018-05-21T04:33:17.575Z,15.92
2018-05-21T04:34:17.850Z,15.97
2018-05-21T04:35:17.867Z,15.91
2018-05-21T04:36:17.714Z,15.86
2018-05-21T04:37:17.911Z,16.08
2018-05-21T04:38:17.930Z,15.91
2018-05-21T04:39:17.698Z,15.98
2018-05-21T04:40:17.969Z,15.98
2018-05-21T04:41:18.005Z,15.88
2018-05-21T04:42:18.028Z,15.94
2018-05-21T04:43:18.048Z,15.84
2018-05-21T04:44:18.066Z,15.88
2018-05-21T04:45:17.846Z,15.88
2018-05-21T04:46:17.852Z,15.97
2018-05-21T04:47:18.138Z,15.95
2018-05-21T04:48:18.152Z,15.88
2018-05-21T04:49:18.170Z,15.86
2018-05-21T04:50:18.189Z,15.94
2018-05-21T04:51:17.959Z,15.9
2018-05-21T04:52:18.235Z,15.94
2018-05-21T04:53:18.005Z,15.88
2018-05-21T04:54:18.027Z,15.92
2018-05-21T04:55:18.301Z,15.83
2018-05-21T04:56:18.331Z,15.77
2018-05-21T04:57:18.343Z,15.8
2018-05-21T04:58:18.362Z,15.86
2018-05-21T04:59:18.413Z,15.98
2018-05-21T05:00:18.410Z,15.95
2018-05-21T05:01:18.447Z,15.97
2018-05-21T05:02:18.452Z,15.95
2018-05-21T05:03:18.229Z,16.02
2018-05-21T05:04:18.505Z,16.09
2018-05-21T05:05:18.259Z,16.04
2018-05-21T05:06:18.546Z,16.1
2018-05-21T05:07:18.302Z,16.12
2018-05-21T05:08:18.598Z,16.08
2018-05-21T05:09:18.604Z,16.08
2018-05-21T05:10:18.617Z,16.13
2018-05-21T05:11:18.637Z,16.15
2018-05-21T05:12:18.680Z,16.12
2018-05-21T05:13:18.688Z,16.09
2018-05-21T05:14:18.719Z,16.08
2018-05-21T05:15:18.478Z,16.09
2018-05-21T05:16:18.501Z,16.09
2018-05-21T05:17:18.772Z,15.95
2018-05-21T05:18:18.795Z,16.05
2018-05-21T05:19:18.575Z,16.24
2018-05-21T05:20:18.833Z,16.33
2018-05-21T05:21:18.861Z,16.35
2018-05-21T05:22:18.879Z,16.39
2018-05-21T05:23:18.900Z,16.38
2018-05-21T05:24:18.937Z,16.46
2018-05-21T05:25:18.951Z,16.39
2018-05-21T05:26:18.967Z,16.57
2018-05-21T05:27:18.739Z,16.51
2018-05-21T05:28:19.013Z,16.47
2018-05-21T05:29:19.031Z,16.49
2018-05-21T05:30:19.055Z,16.5
2018-05-21T05:31:18.809Z,16.65
2018-05-21T05:32:19.084Z,16.58
2018-05-21T05:33:19.102Z,16.54
2018-05-21T05:34:19.125Z,16.51
2018-05-21T05:35:18.898Z,16.5
2018-05-21T05:36:19.173Z,16.53
2018-05-21T05:37:18.953Z,16.56
2018-05-21T05:38:19.242Z,16.61
2018-05-21T05:39:19.273Z,16.53
2018-05-21T05:40:19.018Z,16.6
2018-05-21T05:41:19.043Z,16.42
2018-05-21T05:42:19.053Z,16.41
2018-05-21T05:43:19.074Z,16.43
2018-05-21T05:44:19.344Z,16.42
2018-05-21T05:45:19.168Z,16.56
2018-05-21T05:46:19.390Z,16.49
2018-05-21T05:47:19.423Z,16.47
2018-05-21T05:48:19.182Z,16.42
2018-05-21T05:49:19.452Z,16.5
2018-05-21T05:50:19.224Z,16.74
2018-05-21T05:51:19.496Z,16.66
2018-05-21T05:52:19.519Z,16.66
2018-05-21T05:53:19.543Z,16.72
2018-05-21T05:54:19.581Z,16.72
2018-05-21T05:55:19.603Z,16.79
2018-05-21T05:56:19.630Z,16.72
2018-05-21T05:57:19.660Z,16.84
2018-05-21T05:58:19.675Z,16.87
2018-05-21T05:59:19.693Z,16.89
2018-05-21T06:00:19.723Z,17.02
2018-05-21T06:01:19.743Z,17.04
2018-05-21T06:02:19.769Z,17.15
2018-05-21T06:03:19.786Z,17.22
2018-05-21T06:04:19.802Z,17.33
2018-05-21T06:05:19.830Z,17.33
2018-05-21T06:06:19.615Z,17.38
2018-05-21T06:07:19.617Z,17.45
2018-05-21T06:08:19.895Z,17.36
2018-05-21T06:09:19.920Z,17.46
2018-05-21T06:10:19.689Z,17.49
2018-05-21T06:11:19.967Z,17.44
2018-05-21T06:12:19.731Z,17.52
2018-05-21T06:13:20.005Z,17.56
2018-05-21T06:14:19.771Z,17.6
2018-05-21T06:15:20.053Z,17.7
2018-05-21T06:16:19.818Z,17.74
2018-05-21T06:17:20.091Z,17.78
2018-05-21T06:18:19.614Z,17.86
2018-05-21T06:19:20.138Z,17.87
2018-05-21T06:20:20.166Z,17.89
2018-05-21T06:21:20.181Z,17.87
2018-05-21T06:22:19.953Z,17.94
2018-05-21T06:23:20.229Z,17.94
2018-05-21T06:24:19.995Z,18.05
2018-05-21T06:25:20.357Z,18.19
2018-05-21T06:26:20.297Z,18.22
2018-05-21T06:27:20.330Z,18.22
2018-05-21T06:28:20.094Z,18.15
2018-05-21T06:29:20.372Z,18.26
2018-05-21T06:30:20.388Z,18.2
2018-05-21T06:31:20.156Z,18.37
2018-05-21T06:32:20.183Z,18.37
2018-05-21T06:33:20.217Z,18.41
2018-05-21T06:34:20.835Z,18.43
2018-05-21T06:35:20.252Z,18.34
2018-05-21T06:36:20.610Z,18.37
2018-05-21T06:37:20.552Z,18.23
2018-05-21T06:38:20.572Z,18.37
2018-05-21T06:39:20.617Z,18.35
2018-05-21T06:40:20.626Z,18.45
2018-05-21T06:41:20.660Z,18.41
2018-05-21T06:42:20.667Z,18.49
2018-05-21T06:43:20.698Z,18.62
2018-05-21T06:44:20.766Z,18.71
2018-05-21T06:45:20.734Z,18.78
2018-05-21T06:46:20.761Z,18.74
2018-05-21T06:47:20.782Z,18.78
2018-05-21T06:48:20.807Z,18.93
2018-05-21T06:49:20.830Z,18.92
2018-05-21T06:50:20.600Z,18.98
2018-05-21T06:51:20.624Z,18.95
2018-05-21T06:52:20.898Z,18.95
2018-05-21T06:53:20.916Z,18.84
2018-05-21T06:54:20.689Z,18.95
2018-05-21T06:55:20.965Z,18.99
2018-05-21T06:56:21.002Z,19
2018-05-21T06:57:21.016Z,19.07
2018-05-21T06:58:20.782Z,19.09
2018-05-21T06:59:20.601Z,19.08
2018-05-21T07:00:21.078Z,19.04
2018-05-21T07:01:21.207Z,19.15
2018-05-21T07:02:21.145Z,19.04
2018-05-21T07:03:21.160Z,19.14
2018-05-21T07:04:21.177Z,19.19
2018-05-21T07:05:21.199Z,19.15
2018-05-21T07:06:20.971Z,19.19
2018-05-21T07:07:21.267Z,19.29
2018-05-21T07:08:21.028Z,19.24
2018-05-21T07:09:21.299Z,19.3
2018-05-21T07:10:21.070Z,19.39
2018-05-21T07:11:21.364Z,19.55
2018-05-21T07:12:21.132Z,19.62
2018-05-21T07:13:21.389Z,19.62
2018-05-21T07:14:21.466Z,19.55
2018-05-21T07:15:21.188Z,19.52
2018-05-21T07:16:21.471Z,19.51
2018-05-21T07:17:21.232Z,19.62
2018-05-21T07:18:21.791Z,19.7
2018-05-21T07:19:21.533Z,19.7
2018-05-21T07:20:21.304Z,19.74
2018-05-21T07:21:21.581Z,19.88
2018-05-21T07:22:21.352Z,19.88
2018-05-21T07:23:21.371Z,19.89
2018-05-21T07:24:21.738Z,19.88
2018-05-21T07:25:21.679Z,19.92
2018-05-21T07:26:21.711Z,19.95
2018-05-21T07:27:21.470Z,20.04
2018-05-21T07:28:21.495Z,20
2018-05-21T07:29:23.023Z,20.02
2018-05-21T07:30:21.808Z,20.04
2018-05-21T07:31:21.576Z,20.02
2018-05-21T07:32:21.874Z,20.11
2018-05-21T07:33:21.878Z,19.92
2018-05-21T07:34:21.895Z,19.89
2018-05-21T07:35:21.903Z,19.92
2018-05-21T07:36:21.681Z,19.91
2018-05-21T07:37:21.952Z,19.96
2018-05-21T07:38:21.721Z,20.07
2018-05-21T07:39:21.494Z,20.03
2018-05-21T07:40:22.045Z,20.18
2018-05-21T07:41:21.797Z,20.21
2018-05-21T07:42:22.072Z,20.13
2018-05-21T07:43:22.101Z,20.25
2018-05-21T07:44:21.923Z,20.18
2018-05-21T07:45:22.143Z,20.21
2018-05-21T07:46:22.170Z,20.26
2018-05-21T07:47:21.944Z,20.34
2018-05-21T07:48:22.238Z,20.36
2018-05-21T07:49:22.241Z,20.44
2018-05-21T07:50:22.028Z,20.65
2018-05-21T07:51:22.533Z,20.63
2018-05-21T07:52:22.080Z,20.69
2018-05-21T07:53:22.103Z,20.59
2018-05-21T07:54:22.130Z,20.55
2018-05-21T07:55:22.156Z,20.65
2018-05-21T07:56:22.423Z,20.66
2018-05-21T07:57:22.461Z,20.51
2018-05-21T07:58:22.341Z,20.56
2018-05-21T07:59:22.556Z,20.72
2018-05-21T08:00:22.527Z,20.82
2018-05-21T08:01:22.296Z,20.87
2018-05-21T08:02:22.575Z,20.82
2018-05-21T08:03:22.605Z,20.82
2018-05-21T08:04:22.625Z,20.92
2018-05-21T08:05:22.810Z,20.95
2018-05-21T08:06:22.678Z,20.92
2018-05-21T08:07:22.700Z,21.11
2018-05-21T08:08:22.462Z,21.09
2018-05-21T08:09:22.752Z,21.25
2018-05-21T08:10:22.763Z,21.24
2018-05-21T08:11:22.789Z,21.37
2018-05-21T08:12:22.563Z,21.37
2018-05-21T08:13:22.844Z,21.4
2018-05-21T08:14:22.917Z,21.46
2018-05-21T08:15:22.894Z,21.52
2018-05-21T08:16:22.929Z,21.64
2018-05-21T08:17:22.696Z,21.58
2018-05-21T08:18:22.458Z,21.7
2018-05-21T08:19:23.045Z,21.75
2018-05-21T08:20:23.020Z,21.73
2018-05-21T08:21:22.789Z,21.91
2018-05-21T08:22:22.835Z,21.77
2018-05-21T08:23:22.839Z,21.77
2018-05-21T08:24:23.380Z,21.92
2018-05-21T08:25:22.892Z,21.99
2018-05-21T08:26:23.166Z,21.89
2018-05-21T08:27:23.238Z,21.95
2018-05-21T08:28:23.237Z,22.04
2018-05-21T08:29:23.327Z,22.04
2018-05-21T08:30:23.273Z,22.04
2018-05-21T08:31:23.306Z,22.15
2018-05-21T08:32:23.067Z,22.15
2018-05-21T08:33:23.365Z,22.26
2018-05-21T08:34:23.475Z,22.47
2018-05-21T08:35:23.144Z,22.39
2018-05-21T08:36:23.420Z,22.44
2018-05-21T08:37:23.447Z,22.5
2018-05-21T08:38:22.972Z,22.57
2018-05-21T08:39:23.242Z,22.6
2018-05-21T08:40:23.538Z,22.62
2018-05-21T08:41:23.555Z,22.66
2018-05-21T08:42:23.324Z,22.6
2018-05-21T08:43:23.347Z,22.68
2018-05-21T08:44:23.675Z,22.75
2018-05-21T08:45:23.401Z,22.9
2018-05-21T08:46:23.449Z,22.73
2018-05-21T08:47:23.706Z,22.83
2018-05-21T08:48:23.804Z,22.93
2018-05-21T08:49:23.756Z,22.96
2018-05-21T08:50:23.774Z,23.05
2018-05-21T08:51:23.545Z,23.08
2018-05-21T08:52:24.003Z,23.12
2018-05-21T08:53:23.600Z,23.18
2018-05-21T08:54:23.879Z,23.21
2018-05-21T08:55:24.013Z,23.31
2018-05-21T08:56:23.934Z,23.36
2018-05-21T08:57:23.961Z,23.43
2018-05-21T08:58:23.729Z,23.39
2018-05-21T08:59:23.817Z,23.44
2018-05-21T09:00:24.160Z,23.61
2018-05-21T09:01:24.065Z,23.47
2018-05-21T09:02:24.087Z,23.48
2018-05-21T09:03:24.120Z,23.58
2018-05-21T09:04:24.144Z,23.58
2018-05-21T09:05:24.164Z,23.54
2018-05-21T09:06:24.200Z,23.51
2018-05-21T09:07:24.225Z,23.47
2018-05-21T09:08:24.254Z,23.61
2018-05-21T09:09:24.299Z,23.74
2018-05-21T09:10:24.299Z,23.76
2018-05-21T09:11:24.322Z,23.86
2018-05-21T09:12:24.520Z,24.02
2018-05-21T09:13:24.382Z,23.92
2018-05-21T09:14:24.451Z,23.93
2018-05-21T09:15:24.435Z,23.99
2018-05-21T09:16:24.628Z,23.98
2018-05-21T09:17:24.226Z,23.98
2018-05-21T09:18:24.257Z,23.86
2018-05-21T09:19:24.536Z,23.95
2018-05-21T09:20:24.560Z,23.92
2018-05-21T09:21:24.323Z,23.99
2018-05-21T09:22:24.349Z,24.08
2018-05-21T09:23:24.374Z,24.03
2018-05-21T09:24:24.402Z,23.96
2018-05-21T09:25:24.683Z,23.88
2018-05-21T09:26:24.201Z,24.1
2018-05-21T09:27:24.484Z,24.14
2018-05-21T09:28:24.506Z,24.24
2018-05-21T09:29:24.839Z,24.21
2018-05-21T09:30:24.809Z,24.3
2018-05-21T09:31:25.026Z,24.33
2018-05-21T09:32:25.065Z,24.32
2018-05-21T09:33:24.908Z,24.39
2018-05-21T09:34:24.683Z,24.54
2018-05-21T09:35:24.962Z,24.57
2018-05-21T09:36:24.476Z,24.61
2018-05-21T09:37:24.757Z,24.69
2018-05-21T09:38:24.796Z,24.84
2018-05-21T09:39:25.067Z,25.06
2018-05-21T09:40:25.092Z,25.44
2018-05-21T09:41:24.870Z,25.69
2018-05-21T09:42:24.638Z,26.02
2018-05-21T09:43:25.169Z,26.37
2018-05-21T09:44:25.007Z,26.74
2018-05-21T09:45:25.237Z,27.05
2018-05-21T09:46:25.001Z,27.18
2018-05-21T09:47:25.033Z,27.2
2018-05-21T09:48:24.804Z,27.26
2018-05-21T09:49:25.089Z,27.42
2018-05-21T09:50:25.371Z,27.67
2018-05-21T09:51:25.397Z,27.85
2018-05-21T09:52:25.422Z,28.11
2018-05-21T09:53:25.457Z,28.35
2018-05-21T09:54:25.493Z,28.48
2018-05-21T09:55:25.510Z,28.52
2018-05-21T09:56:25.538Z,28.82
2018-05-21T09:57:25.569Z,29.04
2018-05-21T09:58:25.340Z,29.19
2018-05-21T09:59:25.680Z,29.14
2018-05-21T10:00:25.660Z,29.23
2018-05-21T10:01:25.687Z,29.29
2018-05-21T10:02:25.722Z,29.57
2018-05-21T10:03:25.745Z,29.82
2018-05-21T10:04:25.543Z,30.09
2018-05-21T10:05:25.812Z,30.27
2018-05-21T10:06:25.582Z,30.54
2018-05-21T10:07:25.619Z,30.81
2018-05-21T10:08:25.894Z,30.77
2018-05-21T10:09:25.669Z,31.07
2018-05-21T10:10:25.966Z,31.17
2018-05-21T10:11:25.745Z,31.58
2018-05-21T10:12:26.031Z,31.56
2018-05-21T10:13:26.056Z,31.8
2018-05-21T10:14:26.158Z,31.56
2018-05-21T10:15:26.123Z,31.84
2018-05-21T10:16:26.151Z,31.96
2018-05-21T10:17:26.196Z,31.89
2018-05-21T10:18:26.218Z,32.08
2018-05-21T10:19:26.566Z,32.49
2018-05-21T10:20:26.289Z,32.82
2018-05-21T10:21:26.310Z,32.95
2018-05-21T10:22:26.346Z,33.19
2018-05-21T10:23:26.381Z,33.15
2018-05-21T10:24:26.171Z,33.11
2018-05-21T10:25:26.435Z,32.78
2018-05-21T10:26:26.486Z,32.8
2018-05-21T10:27:26.503Z,32.86
2018-05-21T10:28:26.536Z,33.17
2018-05-21T10:29:26.366Z,33.08
2018-05-21T10:30:26.602Z,33.3
2018-05-21T10:31:26.652Z,33.47
2018-05-21T10:32:26.415Z,33.61
2018-05-21T10:33:26.695Z,33.77
2018-05-21T10:34:26.477Z,33.99
2018-05-21T10:35:26.769Z,34.02
2018-05-21T10:36:26.802Z,33.92
2018-05-21T10:37:27.037Z,34.02
2018-05-21T10:38:26.862Z,34.14
2018-05-21T10:39:26.896Z,33.89
2018-05-21T10:40:26.929Z,33.8
2018-05-21T10:41:26.706Z,33.45
2018-05-21T10:42:26.742Z,33.98
2018-05-21T10:43:27.030Z,34.17
2018-05-21T10:44:27.123Z,34.47
2018-05-21T10:45:26.843Z,34.52
2018-05-21T10:46:26.879Z,34.55
2018-05-21T10:47:26.909Z,34.51
2018-05-21T10:48:26.948Z,34.62
2018-05-21T10:49:27.238Z,34.75
2018-05-21T10:50:27.272Z,34.64
2018-05-21T10:51:27.448Z,35.04
2018-05-21T10:52:26.827Z,35.19
2018-05-21T10:53:27.106Z,34.89
2018-05-21T10:54:27.546Z,35.15
2018-05-21T10:55:27.176Z,35.29
2018-05-21T10:56:27.411Z,35.24
2018-05-21T10:57:27.244Z,35.27
2018-05-21T10:58:27.528Z,35.51
2018-05-21T10:59:27.102Z,35.83
2018-05-21T11:00:27.601Z,35.63
2018-05-21T11:01:27.437Z,35.53
2018-05-21T11:02:27.683Z,35.61
2018-05-21T11:03:27.700Z,35.58
2018-05-21T11:04:27.484Z,35.52
2018-05-21T11:05:27.513Z,35.55
2018-05-21T11:06:27.544Z,35.66
2018-05-21T11:07:27.839Z,35.9
2018-05-21T11:08:27.877Z,36.33
2018-05-21T11:09:27.657Z,36.65
2018-05-21T11:10:27.936Z,36.91
2018-05-21T11:11:27.459Z,37.11
2018-05-21T11:12:28.004Z,37.28
2018-05-21T11:13:28.073Z,36.64
2018-05-21T11:14:28.135Z,36.52
2018-05-21T11:15:27.600Z,36.51
2018-05-21T11:16:27.892Z,36.55
2018-05-21T11:17:28.175Z,36.83
2018-05-21T11:18:28.208Z,37.13
2018-05-21T11:19:27.990Z,37.37
2018-05-21T11:20:28.026Z,37.42
2018-05-21T11:21:28.314Z,37.42
2018-05-21T11:22:28.347Z,37.63
2018-05-21T11:23:28.400Z,37.84
2018-05-21T11:24:27.910Z,38.12
2018-05-21T11:25:27.944Z,38.36
2018-05-21T11:26:28.236Z,38.26
2018-05-21T11:27:28.523Z,38.62
2018-05-21T11:28:28.325Z,38.68
2018-05-21T11:29:28.746Z,38.77
2018-05-21T11:30:28.370Z,38.19
2018-05-21T11:31:28.405Z,38.33
2018-05-21T11:32:28.689Z,38.33
2018-05-21T11:33:28.726Z,38.31
2018-05-21T11:34:28.866Z,38.36
2018-05-21T11:35:28.814Z,38.21
2018-05-21T11:36:28.840Z,38.28
2018-05-21T11:37:28.615Z,38.65
2018-05-21T11:38:28.904Z,38.34
2018-05-21T11:39:28.689Z,37.84
2018-05-21T11:40:29.021Z,37.56
2018-05-21T11:41:29.012Z,37.8
2018-05-21T11:42:28.794Z,38.23
2018-05-21T11:43:28.831Z,38.49
2018-05-21T11:44:28.918Z,38.97
2018-05-21T11:45:28.905Z,39.33
2018-05-21T11:46:29.453Z,39.59
2018-05-21T11:47:29.173Z,39.59
2018-05-21T11:48:29.255Z,39.62
2018-05-21T11:49:29.294Z,39.52
2018-05-21T11:50:29.348Z,39.56
2018-05-21T11:51:29.368Z,39.51
2018-05-21T11:52:29.401Z,39.63
2018-05-21T11:53:29.450Z,40.06
2018-05-21T11:54:29.219Z,40.47
2018-05-21T11:55:29.518Z,40.51
2018-05-21T11:56:29.553Z,40.66
2018-05-21T11:57:29.583Z,40.81
2018-05-21T11:58:29.368Z,40.85
2018-05-21T11:59:29.473Z,40.44
2018-05-21T12:00:29.689Z,40.12
2018-05-21T12:01:29.726Z,40.11
2018-05-21T12:02:29.506Z,40.3
2018-05-21T12:03:29.797Z,40.59
2018-05-21T12:04:29.842Z,40.68
2018-05-21T12:05:29.870Z,40.69
2018-05-21T12:06:29.904Z,40.59
2018-05-21T12:07:29.952Z,40.62
2018-05-21T12:08:29.729Z,40.77
2018-05-21T12:09:29.759Z,40.91
2018-05-21T12:10:29.797Z,41.29
2018-05-21T12:11:30.088Z,41.62
2018-05-21T12:12:30.119Z,41.74
2018-05-21T12:13:29.972Z,41.99
2018-05-21T12:14:30.352Z,41.85
2018-05-21T12:15:30.231Z,42.14
2018-05-21T12:16:30.267Z,42.02
2018-05-21T12:17:30.050Z,42.1
2018-05-21T12:18:30.349Z,42.38
2018-05-21T12:19:30.364Z,42.5
2018-05-21T12:20:30.399Z,42.35
2018-05-21T12:21:30.183Z,42.38
2018-05-21T12:22:30.683Z,42.51
2018-05-21T12:23:30.259Z,42.36
2018-05-21T12:24:30.551Z,42.28
2018-05-21T12:25:30.587Z,42.28
2018-05-21T12:26:30.621Z,42.29
2018-05-21T12:27:30.404Z,42.45
2018-05-21T12:28:30.460Z,42.26
2018-05-21T12:29:30.799Z,41.56
2018-05-21T12:30:30.786Z,40.78
2018-05-21T12:31:30.806Z,40.15
2018-05-21T12:32:30.846Z,39.34
2018-05-21T12:33:30.887Z,38.84
2018-05-21T12:34:30.936Z,38.33
2018-05-21T12:35:30.709Z,37.51
2018-05-21T12:36:31.000Z,36.45
2018-05-21T12:37:31.037Z,36.46
2018-05-21T12:38:31.069Z,36.2
2018-05-21T12:39:31.105Z,35.78
2018-05-21T12:40:31.138Z,35.52
2018-05-21T12:41:31.174Z,36.01
2018-05-21T12:42:31.204Z,35.86
2018-05-21T12:43:31.238Z,36.01
2018-05-21T12:44:31.330Z,36.67
2018-05-21T12:45:31.322Z,37.55
2018-05-21T12:46:31.344Z,37.94
2018-05-21T12:47:31.130Z,38.73
2018-05-21T12:48:31.152Z,38.76
2018-05-21T12:49:31.193Z,38.58
2018-05-21T12:50:31.227Z,39.06
2018-05-21T12:51:31.518Z,39.75
2018-05-21T12:52:31.550Z,40.06
2018-05-21T12:53:31.329Z,40.54
2018-05-21T12:54:31.729Z,40.82